sensor_id;sensor_type;location;lat;lon;timestamp;P1;durP1;ratioP1;P2;durP2;ratioP2
10880;SDS011;5493;48.884;8.338;2023-09-30T00:02:15;3.67;;;1.37;;
10880;SDS011;5493;48.884;8.338;2023-09-30T00:04:42;3.33;;;1.50;;
10880;SDS011;5493;48.884;8.338;2023-09-30T00:07:08;3.00;;;1.77;;
10880;SDS011;5493;48.884;8.338;2023-09-30T00:09:35;4.73;;;1.77;;
10880;SDS011;5493;48.884;8.338;2023-09-30T00:12:04;3.37;;;1.43;;
10880;SDS011;5493;48.884;8.338;2023-09-30T00:14:31;1.83;;;1.23;;
10880;SDS011;5493;48.884;8.338;2023-09-30T00:16:57;2.97;;;1.50;;
10880;SDS011;5493;48.884;8.338;2023-09-30T00:19:24;5.35;;;1.65;;
10880;SDS011;5493;48.884;8.338;2023-09-30T00:21:51;2.07;;;1.33;;
10880;SDS011;5493;48.884;8.338;2023-09-30T00:24:18;1.98;;;1.42;;
10880;SDS011;5493;48.884;8.338;2023-09-30T00:26:44;2.92;;;1.23;;
10880;SDS011;5493;48.884;8.338;2023-09-30T00:29:12;2.72;;;1.48;;
10880;SDS011;5493;48.884;8.338;2023-09-30T00:31:39;3.07;;;1.33;;
10880;SDS011;5493;48.884;8.338;2023-09-30T00:34:05;3.60;;;1.50;;
10880;SDS011;5493;48.884;8.338;2023-09-30T00:36:33;2.97;;;1.47;;
10880;SDS011;5493;48.884;8.338;2023-09-30T00:39:00;4.23;;;1.50;;
10880;SDS011;5493;48.884;8.338;2023-09-30T00:41:26;2.27;;;1.50;;
10880;SDS011;5493;48.884;8.338;2023-09-30T00:43:53;1.97;;;1.30;;
10880;SDS011;5493;48.884;8.338;2023-09-30T00:46:23;5.60;;;1.40;;
10880;SDS011;5493;48.884;8.338;2023-09-30T00:48:53;2.50;;;1.73;;
10880;SDS011;5493;48.884;8.338;2023-09-30T00:51:20;2.77;;;1.30;;
10880;SDS011;5493;48.884;8.338;2023-09-30T00:53:47;3.77;;;1.60;;
10880;SDS011;5493;48.884;8.338;2023-09-30T00:56:15;3.15;;;1.50;;
10880;SDS011;5493;48.884;8.338;2023-09-30T00:58:43;3.63;;;1.52;;
10880;SDS011;5493;48.884;8.338;2023-09-30T01:01:12;4.03;;;1.55;;
10880;SDS011;5493;48.884;8.338;2023-09-30T01:03:40;1.63;;;1.27;;
10880;SDS011;5493;48.884;8.338;2023-09-30T01:06:06;2.57;;;1.63;;
10880;SDS011;5493;48.884;8.338;2023-09-30T01:08:34;3.37;;;1.70;;
10880;SDS011;5493;48.884;8.338;2023-09-30T01:11:01;4.37;;;1.70;;
10880;SDS011;5493;48.884;8.338;2023-09-30T01:13:31;2.07;;;1.60;;
10880;SDS011;5493;48.884;8.338;2023-09-30T01:15:58;3.90;;;1.58;;
10880;SDS011;5493;48.884;8.338;2023-09-30T01:18:28;2.20;;;1.40;;
10880;SDS011;5493;48.884;8.338;2023-09-30T01:20:56;3.27;;;1.50;;
10880;SDS011;5493;48.884;8.338;2023-09-30T01:23:24;3.63;;;1.40;;
10880;SDS011;5493;48.884;8.338;2023-09-30T01:25:51;2.93;;;1.60;;
10880;SDS011;5493;48.884;8.338;2023-09-30T01:28:17;1.98;;;1.50;;
10880;SDS011;5493;48.884;8.338;2023-09-30T01:30:44;2.37;;;1.40;;
10880;SDS011;5493;48.884;8.338;2023-09-30T01:33:10;2.75;;;1.50;;
10880;SDS011;5493;48.884;8.338;2023-09-30T01:35:37;2.10;;;1.38;;
10880;SDS011;5493;48.884;8.338;2023-09-30T01:38:03;1.77;;;1.20;;
10880;SDS011;5493;48.884;8.338;2023-09-30T01:40:31;2.50;;;1.40;;
10880;SDS011;5493;48.884;8.338;2023-09-30T01:42:58;1.40;;;1.30;;
10880;SDS011;5493;48.884;8.338;2023-09-30T01:45:25;3.00;;;1.60;;
10880;SDS011;5493;48.884;8.338;2023-09-30T01:47:52;2.65;;;1.60;;
10880;SDS011;5493;48.884;8.338;2023-09-30T01:50:18;2.17;;;1.30;;
10880;SDS011;5493;48.884;8.338;2023-09-30T01:52:45;2.90;;;1.50;;
10880;SDS011;5493;48.884;8.338;2023-09-30T01:55:11;2.27;;;1.50;;
10880;SDS011;5493;48.884;8.338;2023-09-30T01:57:39;3.67;;;1.57;;
10880;SDS011;5493;48.884;8.338;2023-09-30T02:00:06;2.10;;;1.40;;
10880;SDS011;5493;48.884;8.338;2023-09-30T02:02:35;3.40;;;1.40;;
10880;SDS011;5493;48.884;8.338;2023-09-30T02:05:02;2.10;;;1.20;;
10880;SDS011;5493;48.884;8.338;2023-09-30T02:07:30;1.57;;;1.23;;
10880;SDS011;5493;48.884;8.338;2023-09-30T02:09:56;1.40;;;1.30;;
10880;SDS011;5493;48.884;8.338;2023-09-30T02:12:23;3.53;;;1.50;;
10880;SDS011;5493;48.884;8.338;2023-09-30T02:14:51;2.37;;;1.57;;
10880;SDS011;5493;48.884;8.338;2023-09-30T02:17:17;4.03;;;1.53;;
10880;SDS011;5493;48.884;8.338;2023-09-30T02:19:44;2.67;;;1.30;;
10880;SDS011;5493;48.884;8.338;2023-09-30T02:22:11;3.63;;;1.57;;
10880;SDS011;5493;48.884;8.338;2023-09-30T02:24:38;2.47;;;1.43;;
10880;SDS011;5493;48.884;8.338;2023-09-30T02:27:05;1.77;;;1.10;;
10880;SDS011;5493;48.884;8.338;2023-09-30T02:29:32;2.30;;;1.50;;
10880;SDS011;5493;48.884;8.338;2023-09-30T02:31:59;1.90;;;1.23;;
10880;SDS011;5493;48.884;8.338;2023-09-30T02:34:26;1.97;;;1.37;;
10880;SDS011;5493;48.884;8.338;2023-09-30T02:36:53;3.57;;;1.50;;
10880;SDS011;5493;48.884;8.338;2023-09-30T02:39:20;1.90;;;1.30;;
10880;SDS011;5493;48.884;8.338;2023-09-30T02:41:47;3.20;;;1.53;;
10880;SDS011;5493;48.884;8.338;2023-09-30T02:44:15;2.70;;;1.70;;
10880;SDS011;5493;48.884;8.338;2023-09-30T02:46:41;3.77;;;1.80;;
10880;SDS011;5493;48.884;8.338;2023-09-30T02:49:09;3.23;;;1.60;;
10880;SDS011;5493;48.884;8.338;2023-09-30T02:51:36;2.80;;;1.40;;
10880;SDS011;5493;48.884;8.338;2023-09-30T02:54:02;4.00;;;1.60;;
10880;SDS011;5493;48.884;8.338;2023-09-30T02:56:29;2.57;;;1.40;;
10880;SDS011;5493;48.884;8.338;2023-09-30T02:58:56;3.53;;;1.80;;
10880;SDS011;5493;48.884;8.338;2023-09-30T03:01:22;2.23;;;1.53;;
10880;SDS011;5493;48.884;8.338;2023-09-30T03:03:49;1.67;;;1.40;;
10880;SDS011;5493;48.884;8.338;2023-09-30T03:06:17;3.20;;;1.23;;
10880;SDS011;5493;48.884;8.338;2023-09-30T03:08:44;4.27;;;1.60;;
10880;SDS011;5493;48.884;8.338;2023-09-30T03:11:10;3.13;;;1.50;;
10880;SDS011;5493;48.884;8.338;2023-09-30T03:13:37;4.73;;;1.50;;
10880;SDS011;5493;48.884;8.338;2023-09-30T03:16:05;2.57;;;1.60;;
10880;SDS011;5493;48.884;8.338;2023-09-30T03:18:32;3.60;;;1.37;;
10880;SDS011;5493;48.884;8.338;2023-09-30T03:20:59;5.27;;;1.60;;
10880;SDS011;5493;48.884;8.338;2023-09-30T03:23:28;2.80;;;1.50;;
10880;SDS011;5493;48.884;8.338;2023-09-30T03:25:56;4.17;;;1.80;;
10880;SDS011;5493;48.884;8.338;2023-09-30T03:28:23;2.60;;;1.60;;
10880;SDS011;5493;48.884;8.338;2023-09-30T03:30:49;2.93;;;1.43;;
10880;SDS011;5493;48.884;8.338;2023-09-30T03:33:16;3.30;;;1.77;;
10880;SDS011;5493;48.884;8.338;2023-09-30T03:35:42;2.00;;;1.50;;
10880;SDS011;5493;48.884;8.338;2023-09-30T03:38:09;2.73;;;1.83;;
10880;SDS011;5493;48.884;8.338;2023-09-30T03:40:39;2.90;;;1.50;;
10880;SDS011;5493;48.884;8.338;2023-09-30T03:43:12;2.60;;;1.50;;
10880;SDS011;5493;48.884;8.338;2023-09-30T03:45:39;2.13;;;1.70;;
10880;SDS011;5493;48.884;8.338;2023-09-30T03:48:06;2.67;;;1.50;;
10880;SDS011;5493;48.884;8.338;2023-09-30T03:50:33;3.37;;;1.70;;
10880;SDS011;5493;48.884;8.338;2023-09-30T03:53:00;2.40;;;1.60;;
10880;SDS011;5493;48.884;8.338;2023-09-30T03:55:27;4.77;;;1.73;;
10880;SDS011;5493;48.884;8.338;2023-09-30T03:57:56;3.90;;;1.90;;
10880;SDS011;5493;48.884;8.338;2023-09-30T04:00:22;3.23;;;1.60;;
10880;SDS011;5493;48.884;8.338;2023-09-30T04:02:49;2.33;;;1.40;;
10880;SDS011;5493;48.884;8.338;2023-09-30T04:05:20;2.97;;;1.70;;
10880;SDS011;5493;48.884;8.338;2023-09-30T04:07:53;3.90;;;1.60;;
10880;SDS011;5493;48.884;8.338;2023-09-30T04:10:20;3.40;;;1.60;;
10880;SDS011;5493;48.884;8.338;2023-09-30T04:12:47;3.90;;;1.77;;
10880;SDS011;5493;48.884;8.338;2023-09-30T04:15:15;1.63;;;1.37;;
10880;SDS011;5493;48.884;8.338;2023-09-30T04:17:42;3.43;;;1.30;;
10880;SDS011;5493;48.884;8.338;2023-09-30T04:20:08;2.43;;;1.60;;
10880;SDS011;5493;48.884;8.338;2023-09-30T04:22:41;2.33;;;1.60;;
10880;SDS011;5493;48.884;8.338;2023-09-30T04:25:11;3.93;;;1.60;;
10880;SDS011;5493;48.884;8.338;2023-09-30T04:27:41;2.77;;;1.60;;
10880;SDS011;5493;48.884;8.338;2023-09-30T04:30:08;2.17;;;1.37;;
10880;SDS011;5493;48.884;8.338;2023-09-30T04:32:37;1.67;;;1.40;;
10880;SDS011;5493;48.884;8.338;2023-09-30T04:35:04;3.43;;;1.60;;
10880;SDS011;5493;48.884;8.338;2023-09-30T04:37:33;3.90;;;1.60;;
10880;SDS011;5493;48.884;8.338;2023-09-30T04:40:01;2.77;;;1.53;;
10880;SDS011;5493;48.884;8.338;2023-09-30T04:42:33;2.53;;;1.60;;
10880;SDS011;5493;48.884;8.338;2023-09-30T04:45:01;4.57;;;1.80;;
10880;SDS011;5493;48.884;8.338;2023-09-30T04:47:29;2.97;;;1.80;;
10880;SDS011;5493;48.884;8.338;2023-09-30T04:49:57;4.57;;;1.80;;
10880;SDS011;5493;48.884;8.338;2023-09-30T04:52:23;1.87;;;1.33;;
10880;SDS011;5493;48.884;8.338;2023-09-30T04:54:52;3.43;;;1.77;;
10880;SDS011;5493;48.884;8.338;2023-09-30T04:57:19;2.40;;;1.47;;
10880;SDS011;5493;48.884;8.338;2023-09-30T04:59:46;2.33;;;1.60;;
10880;SDS011;5493;48.884;8.338;2023-09-30T05:02:13;3.03;;;1.87;;
10880;SDS011;5493;48.884;8.338;2023-09-30T05:04:40;3.60;;;1.50;;
10880;SDS011;5493;48.884;8.338;2023-09-30T05:07:08;2.70;;;1.63;;
10880;SDS011;5493;48.884;8.338;2023-09-30T05:09:35;3.80;;;1.80;;
10880;SDS011;5493;48.884;8.338;2023-09-30T05:12:03;3.27;;;1.77;;
10880;SDS011;5493;48.884;8.338;2023-09-30T05:14:30;3.70;;;1.83;;
10880;SDS011;5493;48.884;8.338;2023-09-30T05:16:58;2.93;;;1.80;;
10880;SDS011;5493;48.884;8.338;2023-09-30T05:19:25;3.63;;;1.70;;
10880;SDS011;5493;48.884;8.338;2023-09-30T05:21:51;3.70;;;1.80;;
10880;SDS011;5493;48.884;8.338;2023-09-30T05:24:19;3.73;;;1.83;;
10880;SDS011;5493;48.884;8.338;2023-09-30T05:26:46;2.67;;;1.90;;
10880;SDS011;5493;48.884;8.338;2023-09-30T05:29:13;4.90;;;1.77;;
10880;SDS011;5493;48.884;8.338;2023-09-30T05:31:39;3.13;;;2.03;;
10880;SDS011;5493;48.884;8.338;2023-09-30T05:34:07;2.13;;;1.70;;
10880;SDS011;5493;48.884;8.338;2023-09-30T05:36:33;2.70;;;1.90;;
10880;SDS011;5493;48.884;8.338;2023-09-30T05:39:00;2.57;;;1.90;;
10880;SDS011;5493;48.884;8.338;2023-09-30T05:41:29;4.27;;;2.07;;
10880;SDS011;5493;48.884;8.338;2023-09-30T05:43:56;3.63;;;2.30;;
10880;SDS011;5493;48.884;8.338;2023-09-30T05:46:23;3.43;;;2.10;;
10880;SDS011;5493;48.884;8.338;2023-09-30T05:48:50;4.47;;;2.07;;
10880;SDS011;5493;48.884;8.338;2023-09-30T05:51:17;2.70;;;2.20;;
10880;SDS011;5493;48.884;8.338;2023-09-30T05:53:44;4.17;;;2.33;;
10880;SDS011;5493;48.884;8.338;2023-09-30T05:56:12;4.57;;;2.30;;
10880;SDS011;5493;48.884;8.338;2023-09-30T05:58:41;4.57;;;2.30;;
10880;SDS011;5493;48.884;8.338;2023-09-30T06:01:08;4.27;;;2.40;;
10880;SDS011;5493;48.884;8.338;2023-09-30T06:03:37;5.40;;;2.30;;
10880;SDS011;5493;48.884;8.338;2023-09-30T06:06:10;5.47;;;2.50;;
10880;SDS011;5493;48.884;8.338;2023-09-30T06:08:37;5.23;;;2.37;;
10880;SDS011;5493;48.884;8.338;2023-09-30T06:11:04;4.40;;;2.40;;
10880;SDS011;5493;48.884;8.338;2023-09-30T06:13:31;2.77;;;2.10;;
10880;SDS011;5493;48.884;8.338;2023-09-30T06:16:00;3.77;;;2.30;;
10880;SDS011;5493;48.884;8.338;2023-09-30T06:18:27;3.57;;;2.20;;
10880;SDS011;5493;48.884;8.338;2023-09-30T06:20:54;3.03;;;2.27;;
10880;SDS011;5493;48.884;8.338;2023-09-30T06:23:20;4.93;;;2.50;;
10880;SDS011;5493;48.884;8.338;2023-09-30T06:25:47;3.80;;;2.20;;
10880;SDS011;5493;48.884;8.338;2023-09-30T06:28:13;4.17;;;2.20;;
10880;SDS011;5493;48.884;8.338;2023-09-30T06:30:40;3.40;;;2.17;;
10880;SDS011;5493;48.884;8.338;2023-09-30T06:33:09;2.93;;;2.23;;
10880;SDS011;5493;48.884;8.338;2023-09-30T06:35:38;5.27;;;2.17;;
10880;SDS011;5493;48.884;8.338;2023-09-30T06:38:15;3.93;;;2.57;;
10880;SDS011;5493;48.884;8.338;2023-09-30T06:40:42;5.20;;;2.67;;
10880;SDS011;5493;48.884;8.338;2023-09-30T06:43:08;4.53;;;2.63;;
10880;SDS011;5493;48.884;8.338;2023-09-30T06:45:35;3.87;;;2.47;;
10880;SDS011;5493;48.884;8.338;2023-09-30T06:48:06;4.93;;;2.67;;
10880;SDS011;5493;48.884;8.338;2023-09-30T06:50:34;5.33;;;2.50;;
10880;SDS011;5493;48.884;8.338;2023-09-30T06:53:00;6.43;;;2.77;;
10880;SDS011;5493;48.884;8.338;2023-09-30T06:55:27;3.70;;;2.17;;
10880;SDS011;5493;48.884;8.338;2023-09-30T06:57:56;5.17;;;2.47;;
10880;SDS011;5493;48.884;8.338;2023-09-30T07:00:22;5.67;;;2.43;;
10880;SDS011;5493;48.884;8.338;2023-09-30T07:02:50;4.20;;;2.40;;
10880;SDS011;5493;48.884;8.338;2023-09-30T07:05:17;4.50;;;2.60;;
10880;SDS011;5493;48.884;8.338;2023-09-30T07:07:44;3.90;;;2.50;;
10880;SDS011;5493;48.884;8.338;2023-09-30T07:10:11;5.27;;;2.37;;
10880;SDS011;5493;48.884;8.338;2023-09-30T07:12:39;5.13;;;2.70;;
10880;SDS011;5493;48.884;8.338;2023-09-30T07:15:06;7.83;;;2.50;;
10880;SDS011;5493;48.884;8.338;2023-09-30T07:17:34;5.77;;;3.00;;
10880;SDS011;5493;48.884;8.338;2023-09-30T07:20:01;6.03;;;3.00;;
10880;SDS011;5493;48.884;8.338;2023-09-30T07:22:29;6.10;;;2.70;;
10880;SDS011;5493;48.884;8.338;2023-09-30T07:24:57;3.67;;;2.40;;
10880;SDS011;5493;48.884;8.338;2023-09-30T07:27:24;3.97;;;2.67;;
10880;SDS011;5493;48.884;8.338;2023-09-30T07:29:51;3.90;;;2.57;;
10880;SDS011;5493;48.884;8.338;2023-09-30T07:32:17;5.43;;;2.70;;
10880;SDS011;5493;48.884;8.338;2023-09-30T07:34:44;5.23;;;2.60;;
10880;SDS011;5493;48.884;8.338;2023-09-30T07:37:10;3.90;;;2.70;;
10880;SDS011;5493;48.884;8.338;2023-09-30T07:39:39;4.17;;;2.90;;
10880;SDS011;5493;48.884;8.338;2023-09-30T07:42:08;7.60;;;2.78;;
10880;SDS011;5493;48.884;8.338;2023-09-30T07:44:34;6.50;;;2.73;;
10880;SDS011;5493;48.884;8.338;2023-09-30T07:47:02;6.93;;;3.07;;
10880;SDS011;5493;48.884;8.338;2023-09-30T07:49:29;5.72;;;3.50;;
10880;SDS011;5493;48.884;8.338;2023-09-30T07:51:55;5.47;;;3.03;;
10880;SDS011;5493;48.884;8.338;2023-09-30T07:54:22;4.50;;;3.30;;
10880;SDS011;5493;48.884;8.338;2023-09-30T07:56:48;5.30;;;2.88;;
10880;SDS011;5493;48.884;8.338;2023-09-30T07:59:17;7.50;;;3.28;;
10880;SDS011;5493;48.884;8.338;2023-09-30T08:01:43;5.90;;;2.72;;
10880;SDS011;5493;48.884;8.338;2023-09-30T08:04:10;5.23;;;2.93;;
10880;SDS011;5493;48.884;8.338;2023-09-30T08:06:36;6.00;;;3.17;;
10880;SDS011;5493;48.884;8.338;2023-09-30T08:09:03;6.05;;;3.05;;
10880;SDS011;5493;48.884;8.338;2023-09-30T08:11:34;5.32;;;2.75;;
10880;SDS011;5493;48.884;8.338;2023-09-30T08:14:02;4.50;;;3.00;;
10880;SDS011;5493;48.884;8.338;2023-09-30T08:16:32;5.13;;;2.83;;
10880;SDS011;5493;48.884;8.338;2023-09-30T08:18:59;3.88;;;2.53;;
10880;SDS011;5493;48.884;8.338;2023-09-30T08:21:25;3.85;;;2.72;;
10880;SDS011;5493;48.884;8.338;2023-09-30T08:23:52;5.05;;;2.78;;
10880;SDS011;5493;48.884;8.338;2023-09-30T08:26:19;6.80;;;3.00;;
10880;SDS011;5493;48.884;8.338;2023-09-30T08:28:45;5.25;;;2.90;;
10880;SDS011;5493;48.884;8.338;2023-09-30T08:31:12;7.13;;;3.05;;
10880;SDS011;5493;48.884;8.338;2023-09-30T08:33:40;5.85;;;3.30;;
10880;SDS011;5493;48.884;8.338;2023-09-30T08:36:10;5.80;;;3.17;;
10880;SDS011;5493;48.884;8.338;2023-09-30T08:38:37;5.18;;;2.88;;
10880;SDS011;5493;48.884;8.338;2023-09-30T08:41:05;4.20;;;2.70;;
10880;SDS011;5493;48.884;8.338;2023-09-30T08:43:33;4.30;;;2.95;;
10880;SDS011;5493;48.884;8.338;2023-09-30T08:46:04;5.68;;;3.35;;
10880;SDS011;5493;48.884;8.338;2023-09-30T08:48:31;4.63;;;2.78;;
10880;SDS011;5493;48.884;8.338;2023-09-30T08:51:00;6.60;;;2.90;;
10880;SDS011;5493;48.884;8.338;2023-09-30T08:53:27;7.85;;;3.30;;
10880;SDS011;5493;48.884;8.338;2023-09-30T08:55:55;4.45;;;2.65;;
10880;SDS011;5493;48.884;8.338;2023-09-30T08:58:24;6.07;;;2.97;;
10880;SDS011;5493;48.884;8.338;2023-09-30T09:00:52;4.43;;;2.70;;
10880;SDS011;5493;48.884;8.338;2023-09-30T09:03:19;6.70;;;3.08;;
10880;SDS011;5493;48.884;8.338;2023-09-30T09:05:46;5.35;;;2.60;;
10880;SDS011;5493;48.884;8.338;2023-09-30T09:08:14;4.30;;;2.80;;
10880;SDS011;5493;48.884;8.338;2023-09-30T09:10:52;8.35;;;2.90;;
10880;SDS011;5493;48.884;8.338;2023-09-30T09:13:21;4.57;;;2.88;;
10880;SDS011;5493;48.884;8.338;2023-09-30T09:15:49;5.10;;;2.97;;
10880;SDS011;5493;48.884;8.338;2023-09-30T09:18:30;6.72;;;3.17;;
10880;SDS011;5493;48.884;8.338;2023-09-30T09:21:07;5.70;;;2.72;;
10880;SDS011;5493;48.884;8.338;2023-09-30T09:23:39;6.93;;;2.95;;
10880;SDS011;5493;48.884;8.338;2023-09-30T09:26:07;4.55;;;2.47;;
10880;SDS011;5493;48.884;8.338;2023-09-30T09:28:35;6.28;;;2.80;;
10880;SDS011;5493;48.884;8.338;2023-09-30T09:31:04;6.30;;;2.83;;
10880;SDS011;5493;48.884;8.338;2023-09-30T09:33:45;4.93;;;2.80;;
10880;SDS011;5493;48.884;8.338;2023-09-30T09:36:12;4.03;;;2.10;;
10880;SDS011;5493;48.884;8.338;2023-09-30T09:38:48;3.75;;;1.95;;
10880;SDS011;5493;48.884;8.338;2023-09-30T09:41:18;4.43;;;2.40;;
10880;SDS011;5493;48.884;8.338;2023-09-30T09:43:45;2.92;;;2.05;;
10880;SDS011;5493;48.884;8.338;2023-09-30T09:46:14;3.97;;;2.00;;
10880;SDS011;5493;48.884;8.338;2023-09-30T09:48:43;3.92;;;2.20;;
10880;SDS011;5493;48.884;8.338;2023-09-30T09:51:12;4.30;;;2.40;;
10880;SDS011;5493;48.884;8.338;2023-09-30T09:53:40;2.78;;;2.10;;
10880;SDS011;5493;48.884;8.338;2023-09-30T09:56:10;4.75;;;2.95;;
10880;SDS011;5493;48.884;8.338;2023-09-30T09:58:39;4.72;;;2.28;;
10880;SDS011;5493;48.884;8.338;2023-09-30T10:01:07;4.55;;;2.47;;
10880;SDS011;5493;48.884;8.338;2023-09-30T10:03:36;4.05;;;2.38;;
10880;SDS011;5493;48.884;8.338;2023-09-30T10:06:04;4.03;;;2.28;;
10880;SDS011;5493;48.884;8.338;2023-09-30T10:08:32;3.60;;;2.28;;
10880;SDS011;5493;48.884;8.338;2023-09-30T10:11:02;4.75;;;2.47;;
10880;SDS011;5493;48.884;8.338;2023-09-30T10:19:17;4.53;;;2.13;;
10880;SDS011;5493;48.884;8.338;2023-09-30T10:24:47;3.17;;;2.15;;
10880;SDS011;5493;48.884;8.338;2023-09-30T10:27:34;4.10;;;2.40;;
10880;SDS011;5493;48.884;8.338;2023-09-30T10:30:08;4.25;;;2.20;;
10880;SDS011;5493;48.884;8.338;2023-09-30T10:35:45;3.40;;;2.10;;
10880;SDS011;5493;48.884;8.338;2023-09-30T10:41:07;3.47;;;2.17;;
10880;SDS011;5493;48.884;8.338;2023-09-30T10:43:35;4.10;;;2.30;;
10880;SDS011;5493;48.884;8.338;2023-09-30T10:46:05;3.17;;;1.95;;
10880;SDS011;5493;48.884;8.338;2023-09-30T10:51:58;4.18;;;2.20;;
10880;SDS011;5493;48.884;8.338;2023-09-30T10:54:26;5.32;;;2.50;;
10880;SDS011;5493;48.884;8.338;2023-09-30T10:56:54;4.10;;;2.10;;
10880;SDS011;5493;48.884;8.338;2023-09-30T10:59:24;3.72;;;1.95;;
10880;SDS011;5493;48.884;8.338;2023-09-30T11:01:53;4.05;;;2.22;;
10880;SDS011;5493;48.884;8.338;2023-09-30T11:04:20;3.30;;;2.00;;
10880;SDS011;5493;48.884;8.338;2023-09-30T11:06:47;3.35;;;2.40;;
10880;SDS011;5493;48.884;8.338;2023-09-30T11:09:15;3.00;;;1.90;;
10880;SDS011;5493;48.884;8.338;2023-09-30T11:11:43;3.22;;;2.25;;
10880;SDS011;5493;48.884;8.338;2023-09-30T11:14:17;3.78;;;2.35;;
10880;SDS011;5493;48.884;8.338;2023-09-30T11:16:45;3.83;;;2.30;;
10880;SDS011;5493;48.884;8.338;2023-09-30T11:19:13;4.18;;;2.10;;
10880;SDS011;5493;48.884;8.338;2023-09-30T11:21:40;4.38;;;2.35;;
10880;SDS011;5493;48.884;8.338;2023-09-30T11:24:07;4.07;;;2.35;;
10880;SDS011;5493;48.884;8.338;2023-09-30T11:26:34;3.00;;;2.00;;
10880;SDS011;5493;48.884;8.338;2023-09-30T11:29:07;4.47;;;2.63;;
10880;SDS011;5493;48.884;8.338;2023-09-30T11:31:36;3.80;;;2.40;;
10880;SDS011;5493;48.884;8.338;2023-09-30T11:34:03;4.47;;;2.45;;
10880;SDS011;5493;48.884;8.338;2023-09-30T11:36:34;4.68;;;2.63;;
10880;SDS011;5493;48.884;8.338;2023-09-30T11:39:01;4.13;;;2.40;;
10880;SDS011;5493;48.884;8.338;2023-09-30T11:41:34;4.82;;;2.45;;
10880;SDS011;5493;48.884;8.338;2023-09-30T11:44:04;4.28;;;2.70;;
10880;SDS011;5493;48.884;8.338;2023-09-30T11:46:46;4.75;;;2.70;;
10880;SDS011;5493;48.884;8.338;2023-09-30T11:49:23;3.92;;;2.67;;
10880;SDS011;5493;48.884;8.338;2023-09-30T11:51:52;4.20;;;2.53;;
10880;SDS011;5493;48.884;8.338;2023-09-30T11:54:19;5.55;;;2.35;;
10880;SDS011;5493;48.884;8.338;2023-09-30T11:56:47;7.18;;;2.50;;
10880;SDS011;5493;48.884;8.338;2023-09-30T11:59:13;4.25;;;2.40;;
10880;SDS011;5493;48.884;8.338;2023-09-30T12:01:40;3.80;;;2.40;;
10880;SDS011;5493;48.884;8.338;2023-09-30T12:04:07;3.47;;;2.22;;
10880;SDS011;5493;48.884;8.338;2023-09-30T12:06:34;5.07;;;2.53;;
10880;SDS011;5493;48.884;8.338;2023-09-30T12:09:04;4.65;;;2.35;;
10880;SDS011;5493;48.884;8.338;2023-09-30T12:11:33;5.32;;;2.72;;
10880;SDS011;5493;48.884;8.338;2023-09-30T12:14:00;5.72;;;2.67;;
10880;SDS011;5493;48.884;8.338;2023-09-30T12:16:26;4.90;;;2.40;;
10880;SDS011;5493;48.884;8.338;2023-09-30T12:18:53;4.60;;;2.60;;
10880;SDS011;5493;48.884;8.338;2023-09-30T12:21:19;4.88;;;2.58;;
10880;SDS011;5493;48.884;8.338;2023-09-30T12:23:47;3.58;;;2.53;;
10880;SDS011;5493;48.884;8.338;2023-09-30T12:26:15;5.15;;;2.65;;
10880;SDS011;5493;48.884;8.338;2023-09-30T12:28:45;5.13;;;2.63;;
10880;SDS011;5493;48.884;8.338;2023-09-30T12:31:12;4.15;;;2.50;;
10880;SDS011;5493;48.884;8.338;2023-09-30T12:33:38;8.43;;;3.03;;
10880;SDS011;5493;48.884;8.338;2023-09-30T12:36:05;4.55;;;2.65;;
10880;SDS011;5493;48.884;8.338;2023-09-30T12:38:32;4.70;;;2.83;;
10880;SDS011;5493;48.884;8.338;2023-09-30T12:40:59;4.22;;;2.50;;
10880;SDS011;5493;48.884;8.338;2023-09-30T12:43:27;6.18;;;2.75;;
10880;SDS011;5493;48.884;8.338;2023-09-30T12:45:54;5.57;;;2.58;;
10880;SDS011;5493;48.884;8.338;2023-09-30T12:48:20;4.78;;;2.50;;
10880;SDS011;5493;48.884;8.338;2023-09-30T12:50:47;5.10;;;2.58;;
10880;SDS011;5493;48.884;8.338;2023-09-30T12:53:13;5.30;;;2.78;;
10880;SDS011;5493;48.884;8.338;2023-09-30T12:55:40;4.30;;;3.05;;
10880;SDS011;5493;48.884;8.338;2023-09-30T12:58:07;4.90;;;2.80;;
10880;SDS011;5493;48.884;8.338;2023-09-30T13:00:35;5.78;;;2.90;;
10880;SDS011;5493;48.884;8.338;2023-09-30T13:03:02;6.22;;;3.10;;
10880;SDS011;5493;48.884;8.338;2023-09-30T13:05:29;6.22;;;2.97;;
10880;SDS011;5493;48.884;8.338;2023-09-30T13:07:56;4.32;;;2.63;;
10880;SDS011;5493;48.884;8.338;2023-09-30T13:10:22;5.22;;;2.63;;
10880;SDS011;5493;48.884;8.338;2023-09-30T13:12:50;4.60;;;2.70;;
10880;SDS011;5493;48.884;8.338;2023-09-30T13:15:18;5.85;;;2.80;;
10880;SDS011;5493;48.884;8.338;2023-09-30T13:17:47;5.32;;;3.20;;
10880;SDS011;5493;48.884;8.338;2023-09-30T13:20:14;6.28;;;2.92;;
10880;SDS011;5493;48.884;8.338;2023-09-30T13:22:40;5.47;;;3.13;;
10880;SDS011;5493;48.884;8.338;2023-09-30T13:25:07;5.93;;;3.15;;
10880;SDS011;5493;48.884;8.338;2023-09-30T13:27:37;7.03;;;3.10;;
10880;SDS011;5493;48.884;8.338;2023-09-30T13:30:04;5.57;;;2.85;;
10880;SDS011;5493;48.884;8.338;2023-09-30T13:32:32;5.15;;;2.92;;
10880;SDS011;5493;48.884;8.338;2023-09-30T13:35:02;4.40;;;2.50;;
10880;SDS011;5493;48.884;8.338;2023-09-30T13:37:29;7.07;;;3.55;;
10880;SDS011;5493;48.884;8.338;2023-09-30T13:39:58;5.93;;;2.72;;
10880;SDS011;5493;48.884;8.338;2023-09-30T13:42:25;6.03;;;2.70;;
10880;SDS011;5493;48.884;8.338;2023-09-30T13:44:51;7.32;;;3.13;;
10880;SDS011;5493;48.884;8.338;2023-09-30T13:47:18;5.68;;;3.00;;
10880;SDS011;5493;48.884;8.338;2023-09-30T13:49:44;4.28;;;2.67;;
10880;SDS011;5493;48.884;8.338;2023-09-30T13:52:12;7.25;;;3.00;;
10880;SDS011;5493;48.884;8.338;2023-09-30T13:54:39;6.38;;;3.05;;
10880;SDS011;5493;48.884;8.338;2023-09-30T13:57:06;4.63;;;2.85;;
10880;SDS011;5493;48.884;8.338;2023-09-30T13:59:33;6.32;;;3.10;;
10880;SDS011;5493;48.884;8.338;2023-09-30T14:02:00;4.72;;;2.83;;
10880;SDS011;5493;48.884;8.338;2023-09-30T14:04:27;6.95;;;2.80;;
10880;SDS011;5493;48.884;8.338;2023-09-30T14:06:56;8.95;;;3.70;;
10880;SDS011;5493;48.884;8.338;2023-09-30T14:09:26;5.35;;;3.17;;
10880;SDS011;5493;48.884;8.338;2023-09-30T14:11:52;8.35;;;3.08;;
10880;SDS011;5493;48.884;8.338;2023-09-30T14:14:19;5.63;;;3.25;;
10880;SDS011;5493;48.884;8.338;2023-09-30T14:16:46;8.02;;;3.00;;
10880;SDS011;5493;48.884;8.338;2023-09-30T14:19:12;8.55;;;3.40;;
10880;SDS011;5493;48.884;8.338;2023-09-30T14:21:39;6.32;;;3.25;;
10880;SDS011;5493;48.884;8.338;2023-09-30T14:24:06;4.90;;;3.22;;
10880;SDS011;5493;48.884;8.338;2023-09-30T14:26:34;5.75;;;3.38;;
10880;SDS011;5493;48.884;8.338;2023-09-30T14:29:01;5.38;;;3.38;;
10880;SDS011;5493;48.884;8.338;2023-09-30T14:31:27;5.72;;;3.33;;
10880;SDS011;5493;48.884;8.338;2023-09-30T14:33:54;5.22;;;3.17;;
10880;SDS011;5493;48.884;8.338;2023-09-30T14:36:21;4.93;;;3.17;;
10880;SDS011;5493;48.884;8.338;2023-09-30T14:38:47;5.35;;;3.22;;
10880;SDS011;5493;48.884;8.338;2023-09-30T14:41:14;5.15;;;2.95;;
10880;SDS011;5493;48.884;8.338;2023-09-30T14:43:43;6.47;;;3.67;;
10880;SDS011;5493;48.884;8.338;2023-09-30T14:46:10;6.50;;;3.50;;
10880;SDS011;5493;48.884;8.338;2023-09-30T14:48:37;5.82;;;3.47;;
10880;SDS011;5493;48.884;8.338;2023-09-30T14:51:04;4.88;;;3.08;;
10880;SDS011;5493;48.884;8.338;2023-09-30T14:53:32;7.93;;;3.30;;
10880;SDS011;5493;48.884;8.338;2023-09-30T14:55:59;6.25;;;3.50;;
10880;SDS011;5493;48.884;8.338;2023-09-30T14:58:26;5.38;;;3.72;;
10880;SDS011;5493;48.884;8.338;2023-09-30T15:00:54;6.55;;;3.45;;
10880;SDS011;5493;48.884;8.338;2023-09-30T15:03:20;8.85;;;3.45;;
10880;SDS011;5493;48.884;8.338;2023-09-30T15:05:47;7.32;;;3.22;;
10880;SDS011;5493;48.884;8.338;2023-09-30T15:08:14;7.00;;;3.42;;
10880;SDS011;5493;48.884;8.338;2023-09-30T15:10:40;6.53;;;3.58;;
10880;SDS011;5493;48.884;8.338;2023-09-30T15:13:07;5.57;;;3.28;;
10880;SDS011;5493;48.884;8.338;2023-09-30T15:15:35;6.72;;;3.50;;
10880;SDS011;5493;48.884;8.338;2023-09-30T15:18:04;6.72;;;3.45;;
10880;SDS011;5493;48.884;8.338;2023-09-30T15:20:30;6.93;;;3.35;;
10880;SDS011;5493;48.884;8.338;2023-09-30T15:23:03;5.93;;;3.20;;